Time;durP1;ratioP1;P1;durP2;ratioP2;P2;SDS_P1;SDS_P2;PMS_P1;PMS_P2;Temp;Humidity;BMP_temperature;BMP_pressure;BME280_temperature;BME280_humidity;BME280_pressure;Samples;Min_cycle;Max_cycle;Signal;HPM_P1;HPM_P2
2021/12/27 00:00:11;;;;;;;16.77;11.05;;;;;;;;;;5013572;28;20091;-89
2021/12/27 00:02:38;;;;;;;20.65;10.73;;;;;;;;;;4997095;28;20053;-90
2021/12/27 00:05:04;;;;;;;18.38;11.38;;;;;;;;;;4996482;28;20556;-89
2021/12/27 00:07:30;;;;;;;17.08;9.95;;;;;;;;;;4997123;28;20041;-89
2021/12/27 00:09:56;;;;;;;21.83;11.43;;;;;;;;;;4997831;28;20131;-89
2021/12/27 00:12:22;;;;;;;17.13;10.45;;;;;;;;;;4998164;28;20050;-90
2021/12/27 00:14:48;;;;;;;17.27;10.90;;;;;;;;;;4997433;28;20046;-89
2021/12/27 00:17:14;;;;;;;18.80;10.73;;;;;;;;;;5004194;23;20050;-89
2021/12/27 00:19:40;;;;;;;20.35;12.88;;;;;;;;;;4997600;28;20056;-89
2021/12/27 00:22:07;;;;;;;22.65;12.63;;;;;;;;;;4996792;28;20052;-90
2021/12/27 00:24:33;;;;;;;20.27;12.18;;;;;;;;;;4996335;28;20045;-90
2021/12/27 00:26:59;;;;;;;16.60;10.85;;;;;;;;;;4996737;28;20099;-90
2021/12/27 00:29:25;;;;;;;19.95;11.88;;;;;;;;;;4997356;28;20046;-90
2021/12/27 00:31:51;;;;;;;23.58;12.68;;;;;;;;;;4996849;28;20137;-89
2021/12/27 00:34:17;;;;;;;16.77;10.23;;;;;;;;;;4996569;28;20038;-89
2021/12/27 00:36:43;;;;;;;16.33;10.13;;;;;;;;;;4996438;28;20049;-89
2021/12/27 00:39:10;;;;;;;15.07;9.48;;;;;;;;;;4997301;28;20133;-90
2021/12/27 00:41:36;;;;;;;20.50;11.63;;;;;;;;;;4997272;28;20507;-91
2021/12/27 00:44:02;;;;;;;15.15;10.00;;;;;;;;;;4997720;28;20042;-91
2021/12/27 00:46:28;;;;;;;17.83;11.25;;;;;;;;;;4997333;28;20054;-91
2021/12/27 00:49:40;;;;;;;18.63;10.98;;;;;;;;;;5129033;27;1382403;-91
2021/12/27 00:52:06;;;;;;;23.20;12.10;;;;;;;;;;5155978;27;20113;-91
2021/12/27 00:54:32;;;;;;;22.13;11.52;;;;;;;;;;5155333;27;20478;-91
2021/12/27 00:57:00;;;;;;;15.82;9.40;;;;;;;;;;5138521;27;20046;-91
2021/12/27 00:59:27;;;;;;;16.42;11.20;;;;;;;;;;5137940;27;20046;-90
2021/12/27 01:01:56;;;;;;;18.15;11.15;;;;;;;;;;5139738;27;20070;-91
2021/12/27 01:04:22;;;;;;;17.48;11.77;;;;;;;;;;5138504;27;20042;-92
2021/12/27 01:06:49;;;;;;;19.90;10.75;;;;;;;;;;5139413;27;20035;-92
2021/12/27 01:09:26;;;;;;;24.70;12.70;;;;;;;;;;5138199;27;20491;-91
2021/12/27 01:12:23;;;;;;;17.70;10.45;;;;;;;;;;5139108;27;20495;-92
2021/12/27 01:17:46;;;;;;;20.95;10.93;;;;;;;;;;5093209;28;20117;-90
2021/12/27 01:20:13;;;;;;;17.52;10.45;;;;;;;;;;5092048;28;20468;-90
2021/12/27 01:22:39;;;;;;;20.88;11.52;;;;;;;;;;5094222;28;20058;-91
2021/12/27 01:25:10;;;;;;;21.88;13.30;;;;;;;;;;5094667;28;20516;-91
2021/12/27 01:27:39;;;;;;;18.98;11.80;;;;;;;;;;5092826;28;20071;-92
2021/12/27 01:30:07;;;;;;;18.90;11.98;;;;;;;;;;5093016;28;20071;-91
2021/12/27 01:32:39;;;;;;;16.55;10.52;;;;;;;;;;5075973;28;20511;-91
2021/12/27 01:35:06;;;;;;;20.17;11.07;;;;;;;;;;5075499;28;20055;-91
2021/12/27 01:37:32;;;;;;;18.80;11.75;;;;;;;;;;5077168;28;20054;-92
2021/12/27 01:40:01;;;;;;;19.13;11.82;;;;;;;;;;5075206;28;20086;-91
2021/12/27 01:42:27;;;;;;;25.23;10.77;;;;;;;;;;5092002;28;20524;-91
2021/12/27 01:44:53;;;;;;;20.63;11.93;;;;;;;;;;5075602;28;20044;-91
2021/12/27 01:47:20;;;;;;;19.77;12.38;;;;;;;;;;5074739;28;20512;-91
2021/12/27 01:49:46;;;;;;;18.85;11.35;;;;;;;;;;5075630;28;20517;-91
2021/12/27 01:52:12;;;;;;;17.80;11.32;;;;;;;;;;5092775;28;20446;-92
2021/12/27 01:54:38;;;;;;;19.48;11.85;;;;;;;;;;5111170;27;20056;-91
2021/12/27 01:57:05;;;;;;;17.73;11.38;;;;;;;;;;5136986;27;20039;-91
2021/12/27 01:59:31;;;;;;;21.25;12.50;;;;;;;;;;5132602;27;20478;-91
2021/12/27 02:01:57;;;;;;;21.58;12.45;;;;;;;;;;5123424;27;20043;-89
2021/12/27 02:04:26;;;;;;;17.58;11.45;;;;;;;;;;5122476;27;20371;-89
2021/12/27 02:06:52;;;;;;;23.02;12.50;;;;;;;;;;5123914;27;20049;-89
2021/12/27 02:09:21;;;;;;;22.15;11.25;;;;;;;;;;5123534;27;20042;-88
2021/12/27 02:11:50;;;;;;;20.17;11.68;;;;;;;;;;5122726;27;20049;-89
2021/12/27 02:14:17;;;;;;;20.40;12.45;;;;;;;;;;5123014;27;20486;-89
2021/12/27 02:16:43;;;;;;;18.88;12.10;;;;;;;;;;5123765;27;20035;-89
2021/12/27 02:19:10;;;;;;;21.77;11.52;;;;;;;;;;5122735;27;20118;-89
2021/12/27 02:21:36;;;;;;;17.80;11.00;;;;;;;;;;5139634;27;20046;-89
2021/12/27 02:24:03;;;;;;;18.70;11.60;;;;;;;;;;5122663;27;20125;-89
2021/12/27 02:26:29;;;;;;;19.13;11.85;;;;;;;;;;5123779;27;20138;-89
2021/12/27 02:28:56;;;;;;;18.42;12.48;;;;;;;;;;5121921;27;20042;-89
2021/12/27 02:31:22;;;;;;;20.73;12.90;;;;;;;;;;5122687;27;20070;-89
2021/12/27 02:33:48;;;;;;;24.92;13.70;;;;;;;;;;5122261;27;20469;-89
2021/12/27 02:36:14;;;;;;;21.50;13.05;;;;;;;;;;5122364;27;20368;-89
2021/12/27 02:38:41;;;;;;;18.38;12.07;;;;;;;;;;5122392;27;20046;-90
2021/12/27 02:41:08;;;;;;;19.20;12.68;;;;;;;;;;5122392;27;20379;-89
2021/12/27 02:43:35;;;;;;;21.17;12.98;;;;;;;;;;5139328;27;20042;-89
2021/12/27 02:46:04;;;;;;;19.83;12.93;;;;;;;;;;5121945;27;20039;-89
2021/12/27 02:48:34;;;;;;;21.98;13.05;;;;;;;;;;5139737;27;20055;-89
2021/12/27 02:51:00;;;;;;;19.80;10.95;;;;;;;;;;5138791;27;20049;-89
2021/12/27 02:53:26;;;;;;;22.25;12.02;;;;;;;;;;5139445;27;20141;-89
2021/12/27 02:55:53;;;;;;;17.17;10.75;;;;;;;;;;5139240;27;20046;-89
2021/12/27 02:58:20;;;;;;;19.15;12.40;;;;;;;;;;5121831;27;20491;-89
2021/12/27 03:00:48;;;;;;;18.92;12.95;;;;;;;;;;5138889;27;20043;-89
2021/12/27 03:03:14;;;;;;;21.38;12.82;;;;;;;;;;5121870;27;20034;-89
2021/12/27 03:05:42;;;;;;;19.98;11.63;;;;;;;;;;5122747;27;20042;-89
2021/12/27 03:08:13;;;;;;;22.75;12.73;;;;;;;;;;5121789;27;20095;-88
2021/12/27 03:10:41;;;;;;;20.45;12.45;;;;;;;;;;5121484;27;20062;-89
2021/12/27 03:13:07;;;;;;;20.52;12.70;;;;;;;;;;5121212;27;20046;-88
2021/12/27 03:15:33;;;;;;;19.95;12.45;;;;;;;;;;5121282;27;20035;-88
2021/12/27 03:17:59;;;;;;;20.88;12.52;;;;;;;;;;5138551;27;20050;-88
2021/12/27 03:20:26;;;;;;;23.33;12.60;;;;;;;;;;5138869;27;20038;-88
2021/12/27 03:22:53;;;;;;;25.75;13.65;;;;;;;;;;5121448;27;20043;-88
2021/12/27 03:25:24;;;;;;;22.00;12.65;;;;;;;;;;5122001;27;20441;-88
2021/12/27 03:27:51;;;;;;;24.10;13.63;;;;;;;;;;5138602;27;20078;-88
2021/12/27 03:30:20;;;;;;;23.40;13.95;;;;;;;;;;5139285;27;20055;-88
2021/12/27 03:32:46;;;;;;;21.70;13.32;;;;;;;;;;5138649;27;20038;-88
2021/12/27 03:35:15;;;;;;;23.00;13.27;;;;;;;;;;5121072;27;20095;-89
2021/12/27 03:37:47;;;;;;;23.42;14.43;;;;;;;;;;5121227;27;20572;-88
2021/12/27 03:40:15;;;;;;;24.80;13.90;;;;;;;;;;5121323;27;20077;-88
2021/12/27 03:42:41;;;;;;;24.50;13.38;;;;;;;;;;5121297;27;20043;-88
2021/12/27 03:45:09;;;;;;;23.27;13.90;;;;;;;;;;5122033;27;20038;-88
2021/12/27 03:47:36;;;;;;;22.48;13.48;;;;;;;;;;5121886;27;20187;-88
2021/12/27 03:50:03;;;;;;;22.85;13.13;;;;;;;;;;5120981;27;20138;-89
2021/12/27 03:52:29;;;;;;;25.45;12.65;;;;;;;;;;5120469;27;20034;-88
2021/12/27 03:54:55;;;;;;;21.58;15.10;;;;;;;;;;5137739;27;20057;-88
2021/12/27 03:57:21;;;;;;;23.10;13.88;;;;;;;;;;5120638;27;20042;-88
2021/12/27 03:59:53;;;;;;;22.33;14.38;;;;;;;;;;5137922;27;20045;-89
2021/12/27 04:02:19;;;;;;;24.33;13.50;;;;;;;;;;5138606;27;20054;-88
2021/12/27 04:04:45;;;;;;;20.40;13.50;;;;;;;;;;5120836;27;20078;-87
2021/12/27 04:07:11;;;;;;;24.80;13.82;;;;;;;;;;5120883;27;20060;-88
2021/12/27 04:09:37;;;;;;;21.80;12.63;;;;;;;;;;5120443;27;20042;-88
2021/12/27 04:12:04;;;;;;;20.98;13.05;;;;;;;;;;5137260;27;20039;-88
2021/12/27 04:14:30;;;;;;;22.63;13.93;;;;;;;;;;5120241;27;20043;-88
2021/12/27 04:16:56;;;;;;;22.63;13.43;;;;;;;;;;5120966;27;20042;-88
2021/12/27 04:19:22;;;;;;;21.85;12.43;;;;;;;;;;5120459;27;20042;-88
2021/12/27 04:21:48;;;;;;;22.08;13.15;;;;;;;;;;5120673;27;20042;-88
2021/12/27 04:24:14;;;;;;;24.42;14.90;;;;;;;;;;5119979;27;20154;-88
2021/12/27 04:26:40;;;;;;;21.77;13.52;;;;;;;;;;5120987;27;20410;-88
2021/12/27 04:29:06;;;;;;;25.08;15.52;;;;;;;;;;5119980;27;20043;-88
2021/12/27 04:31:33;;;;;;;20.27;13.52;;;;;;;;;;5120287;27;20049;-88
2021/12/27 04:33:59;;;;;;;19.90;12.85;;;;;;;;;;5119704;27;20072;-89
2021/12/27 04:36:25;;;;;;;20.92;13.95;;;;;;;;;;5119851;27;20548;-88
2021/12/27 04:38:51;;;;;;;23.52;13.90;;;;;;;;;;5137529;27;20056;-89
2021/12/27 04:41:20;;;;;;;21.90;14.52;;;;;;;;;;5120068;27;20483;-88
2021/12/27 04:43:46;;;;;;;22.67;13.27;;;;;;;;;;5119272;27;20043;-88
2021/12/27 04:46:12;;;;;;;20.83;13.23;;;;;;;;;;5137281;27;20387;-87
2021/12/27 04:48:38;;;;;;;25.00;15.07;;;;;;;;;;5138039;27;20154;-88
2021/12/27 04:51:04;;;;;;;26.92;16.48;;;;;;;;;;5137760;27;20394;-87
2021/12/27 04:53:31;;;;;;;25.95;14.32;;;;;;;;;;5120112;27;20043;-88
2021/12/27 04:55:57;;;;;;;31.48;15.95;;;;;;;;;;5120281;27;20046;-88
2021/12/27 04:58:23;;;;;;;23.73;14.85;;;;;;;;;;5120395;27;20547;-88
2021/12/27 05:00:50;;;;;;;21.23;13.48;;;;;;;;;;5120324;27;20043;-88
2021/12/27 05:03:16;;;;;;;21.90;14.32;;;;;;;;;;5137272;27;20050;-87
2021/12/27 05:05:45;;;;;;;29.27;15.10;;;;;;;;;;5119771;27;20409;-88
2021/12/27 05:08:11;;;;;;;26.88;15.38;;;;;;;;;;5119337;27;20053;-88
2021/12/27 05:10:38;;;;;;;25.27;15.00;;;;;;;;;;5119947;27;20099;-88
2021/12/27 05:13:05;;;;;;;22.65;15.13;;;;;;;;;;5120370;27;20083;-88
2021/12/27 05:15:31;;;;;;;24.23;13.75;;;;;;;;;;5138343;27;20050;-88
2021/12/27 05:17:57;;;;;;;22.60;14.77;;;;;;;;;;5120498;27;20038;-88
2021/12/27 05:20:23;;;;;;;25.85;15.40;;;;;;;;;;5138008;27;20072;-88
2021/12/27 05:22:49;;;;;;;31.80;14.82;;;;;;;;;;5120103;27;20138;-88
2021/12/27 05:25:16;;;;;;;27.05;15.10;;;;;;;;;;5120936;27;20034;-88
2021/12/27 05:27:42;;;;;;;26.98;15.43;;;;;;;;;;5119150;27;20061;-87
2021/12/27 05:30:10;;;;;;;27.45;15.27;;;;;;;;;;5136664;27;20053;-88
2021/12/27 05:32:38;;;;;;;23.92;14.25;;;;;;;;;;5137251;27;20052;-88
2021/12/27 05:35:04;;;;;;;29.40;15.88;;;;;;;;;;5121095;27;20043;-88
2021/12/27 05:37:31;;;;;;;25.48;15.25;;;;;;;;;;5123593;27;20057;-88
2021/12/27 05:40:03;;;;;;;29.25;16.00;;;;;;;;;;5123747;27;20130;-88
2021/12/27 05:42:29;;;;;;;21.65;14.32;;;;;;;;;;5123655;27;20044;-88
2021/12/27 05:44:55;;;;;;;26.17;15.23;;;;;;;;;;5139947;27;20099;-88
2021/12/27 05:47:21;;;;;;;26.42;15.35;;;;;;;;;;5136984;27;20142;-87
2021/12/27 05:49:47;;;;;;;22.65;14.88;;;;;;;;;;5136509;27;20146;-88
2021/12/27 05:52:13;;;;;;;30.45;15.90;;;;;;;;;;5120126;27;20035;-88
2021/12/27 05:54:39;;;;;;;28.80;16.30;;;;;;;;;;5120519;27;20053;-88
2021/12/27 05:57:05;;;;;;;31.75;16.52;;;;;;;;;;5120257;27;20042;-87
2021/12/27 05:59:31;;;;;;;30.58;17.17;;;;;;;;;;5137431;27;20406;-88
2021/12/27 06:02:00;;;;;;;24.05;15.55;;;;;;;;;;5120322;27;20455;-88
2021/12/27 06:04:26;;;;;;;35.75;17.67;;;;;;;;;;5119471;27;20118;-88
2021/12/27 06:06:52;;;;;;;28.27;17.00;;;;;;;;;;5119885;27;20051;-88
2021/12/27 06:09:18;;;;;;;35.25;15.90;;;;;;;;;;5136354;27;20082;-88
2021/12/27 06:11:44;;;;;;;26.85;16.63;;;;;;;;;;5136414;27;20070;-88
2021/12/27 06:14:11;;;;;;;32.78;16.80;;;;;;;;;;5119258;27;20051;-88
2021/12/27 06:16:37;;;;;;;30.52;17.38;;;;;;;;;;5119423;27;20042;-88
2021/12/27 06:19:03;;;;;;;31.58;16.02;;;;;;;;;;5118772;27;20035;-88
2021/12/27 06:21:31;;;;;;;32.28;15.90;;;;;;;;;;5135916;27;20050;-87
2021/12/27 06:23:57;;;;;;;35.03;18.38;;;;;;;;;;5118663;27;20065;-87
2021/12/27 06:26:23;;;;;;;28.35;16.73;;;;;;;;;;5135547;27;20087;-88
2021/12/27 06:28:49;;;;;;;30.15;16.95;;;;;;;;;;5118388;27;20146;-89
2021/12/27 06:31:15;;;;;;;32.63;17.40;;;;;;;;;;5118550;27;20047;-87
2021/12/27 06:33:41;;;;;;;28.73;16.50;;;;;;;;;;5118682;27;20489;-88
2021/12/27 06:36:07;;;;;;;33.53;17.73;;;;;;;;;;5118737;27;20408;-88
2021/12/27 06:38:33;;;;;;;34.28;18.38;;;;;;;;;;5118167;27;20088;-88
2021/12/27 06:41:01;;;;;;;33.90;16.05;;;;;;;;;;5118450;27;20078;-88
2021/12/27 06:43:27;;;;;;;38.42;18.38;;;;;;;;;;5135528;27;20053;-87
2021/12/27 06:45:53;;;;;;;31.25;17.90;;;;;;;;;;5117564;27;20038;-88
2021/12/27 06:48:21;;;;;;;33.03;17.27;;;;;;;;;;5114545;27;20502;-88
2021/12/27 06:50:47;;;;;;;29.73;16.92;;;;;;;;;;5114635;27;20047;-89
2021/12/27 06:53:13;;;;;;;29.33;16.55;;;;;;;;;;5114418;27;20468;-88
2021/12/27 06:55:39;;;;;;;35.28;17.45;;;;;;;;;;5132323;27;20142;-88
2021/12/27 06:58:05;;;;;;;32.38;18.15;;;;;;;;;;5131757;27;20156;-88
2021/12/27 07:00:31;;;;;;;31.27;17.75;;;;;;;;;;5114764;27;20059;-88
2021/12/27 07:02:57;;;;;;;31.98;16.05;;;;;;;;;;5114899;27;20043;-87
2021/12/27 07:05:23;;;;;;;44.00;16.15;;;;;;;;;;5114741;27;20467;-88
2021/12/27 07:07:49;;;;;;;36.78;18.27;;;;;;;;;;5115471;27;20123;-88
2021/12/27 07:10:17;;;;;;;33.25;17.65;;;;;;;;;;5115286;27;20053;-87
2021/12/27 07:12:43;;;;;;;31.25;18.88;;;;;;;;;;5131973;27;20158;-87
2021/12/27 07:15:09;;;;;;;30.33;17.85;;;;;;;;;;5115993;27;20039;-88
2021/12/27 07:17:35;;;;;;;29.98;15.75;;;;;;;;;;5131681;27;20139;-88
2021/12/27 07:20:01;;;;;;;47.30;20.58;;;;;;;;;;5132046;27;20122;-87
2021/12/27 07:22:28;;;;;;;35.78;18.00;;;;;;;;;;5114942;27;20090;-90
2021/12/27 07:24:54;;;;;;;31.85;18.58;;;;;;;;;;5114653;27;20058;-87
2021/12/27 07:27:20;;;;;;;30.42;16.95;;;;;;;;;;5114825;27;20039;-88
2021/12/27 07:29:46;;;;;;;30.73;20.27;;;;;;;;;;5131850;27;20088;-88
2021/12/27 07:32:12;;;;;;;30.52;17.13;;;;;;;;;;5114853;27;20120;-88
2021/12/27 07:34:38;;;;;;;31.45;17.10;;;;;;;;;;5114524;27;20050;-88
2021/12/27 07:37:04;;;;;;;34.60;18.88;;;;;;;;;;5131976;27;20047;-89
2021/12/27 07:39:30;;;;;;;43.28;18.77;;;;;;;;;;5114646;27;20058;-88
2021/12/27 07:41:56;;;;;;;34.90;19.10;;;;;;;;;;5114342;27;20129;-88
2021/12/27 07:44:23;;;;;;;38.78;18.00;;;;;;;;;;5131754;27;20349;-88
2021/12/27 07:46:49;;;;;;;37.42;18.65;;;;;;;;;;5132810;27;20039;-89
2021/12/27 07:49:16;;;;;;;32.83;18.85;;;;;;;;;;5112933;27;20395;-87
2021/12/27 07:51:42;;;;;;;36.75;17.10;;;;;;;;;;5113656;27;20440;-87
2021/12/27 07:54:09;;;;;;;38.42;19.60;;;;;;;;;;5114034;27;20582;-87
2021/12/27 07:56:35;;;;;;;37.50;18.35;;;;;;;;;;5113963;27;20077;-88
2021/12/27 07:59:04;;;;;;;40.78;20.00;;;;;;;;;;5113990;27;20051;-87
2021/12/27 08:01:38;;;;;;;41.67;20.70;;;;;;;;;;5113725;27;20044;-87
2021/12/27 08:04:04;;;;;;;29.45;16.63;;;;;;;;;;5113919;27;20077;-88
2021/12/27 08:06:31;;;;;;;35.28;19.85;;;;;;;;;;5113489;27;20489;-87
2021/12/27 08:08:57;;;;;;;40.83;18.75;;;;;;;;;;5115390;27;20046;-88
2021/12/27 08:11:24;;;;;;;39.03;18.85;;;;;;;;;;5113045;27;20039;-87
2021/12/27 08:13:50;;;;;;;43.70;18.88;;;;;;;;;;5114281;27;20054;-87
2021/12/27 08:16:17;;;;;;;34.13;18.25;;;;;;;;;;5112386;27;20047;-88
2021/12/27 08:18:46;;;;;;;37.75;19.38;;;;;;;;;;5131354;27;20047;-87
2021/12/27 08:21:13;;;;;;;33.88;18.17;;;;;;;;;;5113311;27;20066;-88
2021/12/27 08:23:39;;;;;;;41.85;19.33;;;;;;;;;;5113195;27;20126;-87
2021/12/27 08:26:05;;;;;;;35.33;20.55;;;;;;;;;;5130711;27;20416;-87
2021/12/27 08:28:31;;;;;;;37.58;19.75;;;;;;;;;;5115188;27;20405;-88
2021/12/27 08:30:58;;;;;;;50.75;21.35;;;;;;;;;;5113107;27;20035;-88
2021/12/27 08:33:24;;;;;;;38.00;20.25;;;;;;;;;;5130792;27;20047;-87
2021/12/27 08:35:50;;;;;;;37.83;20.00;;;;;;;;;;5116020;27;20376;-87
2021/12/27 08:38:18;;;;;;;38.00;19.52;;;;;;;;;;5117083;28;20540;-88
2021/12/27 08:40:44;;;;;;;35.55;19.58;;;;;;;;;;5116836;28;20078;-88
2021/12/27 08:43:10;;;;;;;47.35;21.48;;;;;;;;;;5135608;27;20035;-89
2021/12/27 08:45:36;;;;;;;37.40;19.67;;;;;;;;;;5116060;28;20039;-88
2021/12/27 08:48:02;;;;;;;57.80;20.15;;;;;;;;;;5116646;27;20367;-88
2021/12/27 08:50:28;;;;;;;46.17;20.92;;;;;;;;;;5118686;27;20058;-88
2021/12/27 08:52:55;;;;;;;47.60;22.25;;;;;;;;;;5120194;27;20125;-88
2021/12/27 08:55:21;;;;;;;41.13;21.10;;;;;;;;;;5120205;27;20133;-88
2021/12/27 08:57:47;;;;;;;48.10;22.13;;;;;;;;;;5118680;27;20483;-88
2021/12/27 09:00:15;;;;;;;45.15;20.63;;;;;;;;;;5117140;27;20497;-88
2021/12/27 09:02:42;;;;;;;44.58;18.33;;;;;;;;;;5117075;27;20089;-89
2021/12/27 09:05:08;;;;;;;44.13;18.90;;;;;;;;;;5117254;27;20130;-88
2021/12/27 09:07:34;;;;;;;42.08;22.00;;;;;;;;;;5120294;27;20043;-87
2021/12/27 09:10:00;;;;;;;47.17;21.98;;;;;;;;;;5122238;27;20101;-88
2021/12/27 09:12:29;;;;;;;50.75;22.38;;;;;;;;;;5139785;27;20384;-88
2021/12/27 09:14:55;;;;;;;56.95;23.27;;;;;;;;;;5140651;27;20133;-89
2021/12/27 09:17:21;;;;;;;57.75;24.05;;;;;;;;;;5141958;27;20099;-88
2021/12/27 09:19:47;;;;;;;52.15;24.65;;;;;;;;;;5123252;27;20050;-88
2021/12/27 09:22:17;;;;;;;45.08;19.35;;;;;;;;;;5140372;27;20055;-88
2021/12/27 09:24:43;;;;;;;49.90;22.30;;;;;;;;;;5122391;27;20379;-88
2021/12/27 09:27:09;;;;;;;59.17;24.02;;;;;;;;;;5123968;27;20130;-88
2021/12/27 09:29:36;;;;;;;50.53;20.50;;;;;;;;;;5139909;27;20046;-88
2021/12/27 09:32:05;;;;;;;61.65;23.65;;;;;;;;;;5124290;27;20035;-88
2021/12/27 09:34:31;;;;;;;61.55;21.25;;;;;;;;;;5122786;27;20555;-88
2021/12/27 09:36:57;;;;;;;55.78;22.33;;;;;;;;;;5123137;27;20126;-88
2021/12/27 09:39:23;;;;;;;54.20;23.23;;;;;;;;;;5123675;27;20057;-89
2021/12/27 09:41:49;;;;;;;63.42;24.35;;;;;;;;;;5123659;27;20077;-90
2021/12/27 09:44:15;;;;;;;49.65;23.27;;;;;;;;;;5122548;27;20050;-90
2021/12/27 09:46:41;;;;;;;67.75;22.77;;;;;;;;;;5140433;27;20569;-91
2021/12/27 09:49:13;;;;;;;58.05;23.60;;;;;;;;;;5123574;27;20053;-90
2021/12/27 09:51:40;;;;;;;59.40;23.48;;;;;;;;;;5124226;27;20049;-90
2021/12/27 09:54:07;;;;;;;55.10;22.10;;;;;;;;;;5123672;27;20483;-91
2021/12/27 09:56:33;;;;;;;60.13;22.75;;;;;;;;;;5124936;27;20103;-90
2021/12/27 09:58:59;;;;;;;59.33;24.15;;;;;;;;;;5123305;27;20042;-91
2021/12/27 10:01:25;;;;;;;60.60;23.63;;;;;;;;;;5123026;27;20034;-91
2021/12/27 10:03:51;;;;;;;46.33;20.88;;;;;;;;;;5139049;27;20058;-91
2021/12/27 10:06:18;;;;;;;45.95;21.98;;;;;;;;;;5122891;27;20045;-91
2021/12/27 10:08:45;;;;;;;47.55;23.33;;;;;;;;;;5123613;27;20213;-92
2021/12/27 10:11:23;;;;;;;46.47;21.83;;;;;;;;;;5122736;27;20047;-89
2021/12/27 10:13:58;;;;;;;55.95;23.20;;;;;;;;;;5138244;27;20043;-89
2021/12/27 10:16:25;;;;;;;46.58;21.65;;;;;;;;;;5122011;27;20475;-90
2021/12/27 10:18:55;;;;;;;47.13;20.60;;;;;;;;;;5122469;27;20039;-89
2021/12/27 10:21:21;;;;;;;49.13;22.38;;;;;;;;;;5121437;27;20133;-89
2021/12/27 10:23:47;;;;;;;49.33;19.88;;;;;;;;;;5122209;27;20131;-90
2021/12/27 10:26:17;;;;;;;43.70;18.63;;;;;;;;;;5139229;27;20518;-91
2021/12/27 10:28:44;;;;;;;40.60;19.23;;;;;;;;;;5123048;27;20043;-90
2021/12/27 10:31:10;;;;;;;40.88;20.88;;;;;;;;;;5123644;27;20101;-90
2021/12/27 10:33:36;;;;;;;40.88;19.88;;;;;;;;;;5140116;27;20130;-89
2021/12/27 10:36:03;;;;;;;43.17;20.38;;;;;;;;;;5140136;27;20055;-90
2021/12/27 10:38:37;;;;;;;51.90;21.20;;;;;;;;;;5140442;27;20074;-90
2021/12/27 10:41:04;;;;;;;46.67;20.25;;;;;;;;;;5123210;27;20043;-90
2021/12/27 10:43:38;;;;;;;58.10;24.00;;;;;;;;;;5123918;27;20447;-89
2021/12/27 10:46:04;;;;;;;74.90;25.17;;;;;;;;;;5141696;27;20067;-88
2021/12/27 10:48:39;;;;;;;67.80;23.63;;;;;;;;;;5139671;27;20051;-89
2021/12/27 10:51:05;;;;;;;56.65;22.75;;;;;;;;;;5122646;27;20054;-89
2021/12/27 10:53:48;;;;;;;49.95;22.10;;;;;;;;;;5139289;27;20038;-89
2021/12/27 10:56:14;;;;;;;64.93;24.23;;;;;;;;;;5121842;27;20047;-90
2021/12/27 10:58:51;;;;;;;66.65;23.30;;;;;;;;;;5138538;27;20073;-90
2021/12/27 11:01:19;;;;;;;63.00;23.33;;;;;;;;;;5139142;27;20039;-89
2021/12/27 11:03:47;;;;;;;67.38;23.75;;;;;;;;;;5139150;27;20113;-90
2021/12/27 11:06:15;;;;;;;95.40;25.77;;;;;;;;;;5139408;27;20043;-89
2021/12/27 11:08:45;;;;;;;66.53;25.13;;;;;;;;;;5122470;27;20133;-89
2021/12/27 11:11:15;;;;;;;96.63;24.45;;;;;;;;;;5121616;27;20050;-90
2021/12/27 11:13:41;;;;;;;85.03;26.52;;;;;;;;;;5137178;27;20152;-90
2021/12/27 11:16:08;;;;;;;68.05;26.55;;;;;;;;;;5121912;27;20406;-89
2021/12/27 11:18:34;;;;;;;87.32;26.27;;;;;;;;;;5121348;27;20082;-90
2021/12/27 11:21:04;;;;;;;88.30;27.38;;;;;;;;;;5122721;27;20043;-89
2021/12/27 11:23:31;;;;;;;91.90;27.13;;;;;;;;;;5139127;27;20462;-89
2021/12/27 11:26:03;;;;;;;80.50;24.25;;;;;;;;;;5121830;27;20088;-89
2021/12/27 11:28:39;;;;;;;82.25;26.67;;;;;;;;;;5121537;27;20490;-90
2021/12/27 11:31:07;;;;;;;78.85;24.13;;;;;;;;;;5121118;27;20431;-91
2021/12/27 11:33:51;;;;;;;93.18;29.05;;;;;;;;;;5121221;27;20074;-90
2021/12/27 11:36:17;;;;;;;;;;;1.80;99.90;;;;;;5122298;27;20129;-90
2021/12/27 11:38:44;;;;;;;72.55;25.40;;;;;;;;;;5122739;27;20342;-91
2021/12/27 11:41:25;;;;;;;65.25;22.60;;;;;;;;;;5138577;27;20131;-90
2021/12/27 11:43:56;;;;;;;94.22;27.55;;;;;;;;;;5138779;27;20099;-90
2021/12/27 11:46:26;;;;;;;77.68;26.17;;;;;;;;;;5121914;27;20475;-91
2021/12/27 11:48:54;;;;;;;86.05;26.42;;;;;;;;;;5121324;27;20094;-91
2021/12/27 11:51:34;;;;;;;87.13;27.77;;;;;;;;;;5122184;27;20047;-90
2021/12/27 11:54:00;;;;;;;77.25;26.52;;;;;;;;;;5121853;27;20053;-90
2021/12/27 11:56:39;;;;;;;91.32;26.30;;;;;;;;;;5139192;27;20130;-90
2021/12/27 11:59:35;;;;;;;75.70;24.48;;;;;;;;;;5122836;27;20042;-91
2021/12/27 12:02:16;;;;;;;92.18;27.48;;;;;;;;;;5119533;27;20408;-91
2021/12/27 12:04:45;;;;;;;100.55;27.25;;;;;;;;;;5121527;27;20410;-92
2021/12/27 12:07:12;;;;;;;125.32;28.92;;;;;;;;;;5121359;27;20039;-90
2021/12/27 12:09:47;;;;;;;112.85;29.17;;;;;;;;;;5138586;27;20077;-91
2021/12/27 12:12:15;;;;;;;84.25;25.80;;;;;;;;;;5121884;27;20494;-93
2021/12/27 12:14:42;;;;;;;111.60;26.92;;;;;;;;;;5122226;27;20451;-92
2021/12/27 12:17:10;;;;;;;67.32;23.73;;;;;;;;;;5122528;27;20039;-91
2021/12/27 12:19:45;;;;;;;83.68;26.83;;;;;;;;;;5122352;27;20130;-92
2021/12/27 12:22:30;;;;;;;90.22;26.65;;;;;;;;;;5121782;27;20143;-93
2021/12/27 12:25:25;;;;;;;93.45;26.45;;;;;;;;;;5122441;27;20125;-91
2021/12/27 12:27:51;;;;;;;86.10;25.90;;;;;;;;;;5036650;28;20069;-91
2021/12/27 12:30:17;;;;;;;101.05;26.85;;;;;;;;;;5020612;28;20041;-92
2021/12/27 12:33:21;;;;;;;86.53;28.98;;;;;;;;;;5020821;28;20118;-92
2021/12/27 12:35:54;;;;;;;78.28;24.85;;;;;;;;;;5016003;28;20045;-91
2021/12/27 12:38:20;;;;;;;94.07;26.17;;;;;;;;;;5000007;28;20060;-92
2021/12/27 12:40:57;;;;;;;92.45;26.85;;;;;;;;;;5000253;28;20111;-92
2021/12/27 12:43:32;;;;;;;107.07;28.40;;;;;;;;;;5000362;28;20403;-92
2021/12/27 12:45:58;;;;;;;94.93;28.33;;;;;;;;;;5000903;28;20050;-93
2021/12/27 12:48:28;;;;;;;73.57;26.23;;;;;;;;;;4999749;28;20085;-92
2021/12/27 12:50:54;;;;;;;86.95;26.08;;;;;;;;;;5000303;28;20045;-92
2021/12/27 12:53:29;;;;;;;82.97;26.55;;;;;;;;;;5016601;28;20087;-92
2021/12/27 12:55:58;;;;;;;120.68;29.05;;;;;;;;;;5000230;28;20045;-92
2021/12/27 12:58:38;;;;;;;102.40;25.52;;;;;;;;;;5016809;28;20140;-93
2021/12/27 13:01:08;;;;;;;110.13;26.73;;;;;;;;;;5000425;28;20529;-92
2021/12/27 13:03:34;;;;;;;101.35;29.83;;;;;;;;;;5024253;28;20058;-92
2021/12/27 13:06:03;;;;;;;108.15;28.50;;;;;;;;;;5106632;27;20053;-93
2021/12/27 13:08:29;;;;;;;125.95;28.23;;;;;;;;;;5121686;27;20442;-93
2021/12/27 13:10:57;;;;;;;88.57;25.73;;;;;;;;;;5121671;27;20046;-93
2021/12/27 13:13:23;;;;;;;92.22;27.45;;;;;;;;;;5121566;27;20371;-93
2021/12/27 13:15:49;;;;;;;133.98;30.20;;;;;;;;;;5122455;27;20038;-92
2021/12/27 13:18:18;;;;;;;105.00;27.52;;;;;;;;;;5121628;27;20042;-92
2021/12/27 13:20:52;;;;;;;117.47;27.60;;;;;;;;;;5121243;27;20091;-93
2021/12/27 13:23:23;;;;;;;114.72;30.38;;;;;;;;;;5122475;27;20191;-92
2021/12/27 13:25:50;;;;;;;114.38;29.40;;;;;;;;;;5122039;27;20031;-92
2021/12/27 13:28:30;;;;;;;101.38;27.80;;;;;;;;;;5138967;27;20054;-92
2021/12/27 13:31:16;;;;;;;105.72;29.00;;;;;;;;;;5120836;27;20395;-92
2021/12/27 13:33:53;;;;;;;123.18;30.42;;;;;;;;;;5120544;27;20046;-92
2021/12/27 13:36:26;;;;;;;107.07;28.40;;;;;;;;;;5121142;27;20038;-91
2021/12/27 13:39:06;;;;;;;107.65;28.95;;;;;;;;;;5120916;27;20098;-92
2021/12/27 13:41:33;;;;;;;124.40;31.20;;;;;;;;;;5138157;27;20490;-92
2021/12/27 13:44:01;;;;;;;119.70;31.35;;;;;;;;;;5120891;27;20043;-92
2021/12/27 13:46:29;;;;;;;114.60;31.52;;;;;;;;;;5120943;27;20053;-91
2021/12/27 13:48:56;;;;;;;109.80;29.27;;;;;;;;;;5103769;27;20058;-92
2021/12/27 13:51:24;;;;;;;129.43;32.83;;;;;;;;;;5121041;27;20041;-92
2021/12/27 13:53:58;;;;;;;121.15;31.98;;;;;;;;;;5120690;27;20398;-92
2021/12/27 13:56:25;;;;;;;124.25;31.42;;;;;;;;;;5123162;27;20495;-92
2021/12/27 13:58:52;;;;;;;101.05;27.73;;;;;;;;;;5123823;27;20054;-92
2021/12/27 14:01:20;;;;;;;95.57;26.20;;;;;;;;;;5124265;27;20436;-92
2021/12/27 14:03:47;;;;;;;119.88;30.92;;;;;;;;;;5124844;27;20084;-91
2021/12/27 14:06:14;;;;;;;91.07;28.90;;;;;;;;;;5124089;27;20074;-91
2021/12/27 14:08:53;;;;;;;118.32;29.50;;;;;;;;;;5124949;27;20087;-90
2021/12/27 14:11:21;;;;;;;102.40;27.88;;;;;;;;;;5141714;27;20047;-91
2021/12/27 14:13:47;;;;;;;125.35;31.42;;;;;;;;;;5124976;27;20087;-91
2021/12/27 14:16:19;;;;;;;122.80;29.50;;;;;;;;;;5122741;27;20175;-91
2021/12/27 14:19:08;;;;;;;77.38;25.52;;;;;;;;;;5122443;27;20042;-91
2021/12/27 14:21:52;;;;;;;90.93;27.30;;;;;;;;;;5123388;27;20042;-91
2021/12/27 14:24:27;;;;;;;135.23;30.17;;;;;;;;;;5125253;27;20034;-91